sensor_id;sensor_type;location;lat;lon;timestamp;P1;durP1;ratioP1;P2;durP2;ratioP2
20084;SDS011;10202;48.474;9.138;2023-01-08T00:01:08;9.37;;;5.40;;
20084;SDS011;10202;48.474;9.138;2023-01-08T00:03:36;11.10;;;5.80;;
20084;SDS011;10202;48.474;9.138;2023-01-08T00:06:06;10.57;;;5.90;;
20084;SDS011;10202;48.474;9.138;2023-01-08T00:08:35;10.97;;;5.73;;
20084;SDS011;10202;48.474;9.138;2023-01-08T00:11:01;11.70;;;5.30;;
20084;SDS011;10202;48.474;9.138;2023-01-08T00:13:27;9.30;;;4.90;;
20084;SDS011;10202;48.474;9.138;2023-01-08T00:16:01;9.77;;;4.97;;
20084;SDS011;10202;48.474;9.138;2023-01-08T00:18:33;12.23;;;5.40;;
20084;SDS011;10202;48.474;9.138;2023-01-08T00:21:01;8.25;;;4.90;;
20084;SDS011;10202;48.474;9.138;2023-01-08T00:23:30;8.57;;;4.97;;
20084;SDS011;10202;48.474;9.138;2023-01-08T00:25:56;8.10;;;5.23;;
20084;SDS011;10202;48.474;9.138;2023-01-08T00:28:27;6.47;;;4.27;;
20084;SDS011;10202;48.474;9.138;2023-01-08T00:30:55;9.13;;;4.90;;
20084;SDS011;10202;48.474;9.138;2023-01-08T00:33:23;15.50;;;6.33;;
20084;SDS011;10202;48.474;9.138;2023-01-08T00:35:51;11.60;;;5.77;;
20084;SDS011;10202;48.474;9.138;2023-01-08T00:38:19;10.47;;;5.77;;
20084;SDS011;10202;48.474;9.138;2023-01-08T00:40:54;10.57;;;5.97;;
20084;SDS011;10202;48.474;9.138;2023-01-08T00:43:24;11.03;;;6.23;;
20084;SDS011;10202;48.474;9.138;2023-01-08T00:45:50;11.80;;;5.93;;
20084;SDS011;10202;48.474;9.138;2023-01-08T00:48:20;13.77;;;6.43;;
20084;SDS011;10202;48.474;9.138;2023-01-08T00:50:49;10.87;;;6.07;;
20084;SDS011;10202;48.474;9.138;2023-01-08T00:53:20;9.77;;;5.63;;
20084;SDS011;10202;48.474;9.138;2023-01-08T00:55:57;9.23;;;5.73;;
20084;SDS011;10202;48.474;9.138;2023-01-08T00:58:29;8.40;;;5.60;;
20084;SDS011;10202;48.474;9.138;2023-01-08T01:00:56;7.23;;;4.77;;
20084;SDS011;10202;48.474;9.138;2023-01-08T01:03:27;6.33;;;5.00;;
20084;SDS011;10202;48.474;9.138;2023-01-08T01:06:00;6.17;;;4.60;;
20084;SDS011;10202;48.474;9.138;2023-01-08T01:08:29;10.43;;;6.40;;
20084;SDS011;10202;48.474;9.138;2023-01-08T01:10:57;10.57;;;6.97;;
20084;SDS011;10202;48.474;9.138;2023-01-08T01:13:24;25.13;;;13.93;;
20084;SDS011;10202;48.474;9.138;2023-01-08T01:15:59;38.70;;;18.40;;
20084;SDS011;10202;48.474;9.138;2023-01-08T01:18:27;45.57;;;20.57;;
20084;SDS011;10202;48.474;9.138;2023-01-08T01:20:56;15.40;;;8.77;;
20084;SDS011;10202;48.474;9.138;2023-01-08T01:23:26;7.13;;;4.80;;
20084;SDS011;10202;48.474;9.138;2023-01-08T01:25:55;26.30;;;14.57;;
20084;SDS011;10202;48.474;9.138;2023-01-08T01:28:20;32.30;;;15.63;;
20084;SDS011;10202;48.474;9.138;2023-01-08T01:30:51;60.90;;;29.30;;
20084;SDS011;10202;48.474;9.138;2023-01-08T01:33:23;28.73;;;14.80;;
20084;SDS011;10202;48.474;9.138;2023-01-08T01:35:48;9.50;;;5.40;;
20084;SDS011;10202;48.474;9.138;2023-01-08T01:38:24;8.40;;;5.77;;
20084;SDS011;10202;48.474;9.138;2023-01-08T01:40:51;10.17;;;6.40;;
20084;SDS011;10202;48.474;9.138;2023-01-08T01:49:12;10.17;;;6.90;;
20084;SDS011;10202;48.474;9.138;2023-01-08T01:51:46;11.87;;;7.83;;
20084;SDS011;10202;48.474;9.138;2023-01-08T01:54:16;23.97;;;14.67;;
20084;SDS011;10202;48.474;9.138;2023-01-08T01:56:51;15.33;;;9.77;;
20084;SDS011;10202;48.474;9.138;2023-01-08T01:59:22;27.33;;;15.83;;
20084;SDS011;10202;48.474;9.138;2023-01-08T02:01:52;32.97;;;19.90;;
20084;SDS011;10202;48.474;9.138;2023-01-08T02:04:22;41.67;;;25.13;;
20084;SDS011;10202;48.474;9.138;2023-01-08T02:09:47;12.00;;;7.37;;
20084;SDS011;10202;48.474;9.138;2023-01-08T02:12:57;8.93;;;5.33;;
20084;SDS011;10202;48.474;9.138;2023-01-08T02:15:30;6.63;;;4.17;;
20084;SDS011;10202;48.474;9.138;2023-01-08T02:18:26;4.37;;;3.10;;
20084;SDS011;10202;48.474;9.138;2023-01-08T02:21:37;3.80;;;3.00;;
20084;SDS011;10202;48.474;9.138;2023-01-08T02:27:30;3.17;;;2.70;;
20084;SDS011;10202;48.474;9.138;2023-01-08T02:29:57;4.07;;;2.50;;
20084;SDS011;10202;48.474;9.138;2023-01-08T02:32:27;4.47;;;2.50;;
20084;SDS011;10202;48.474;9.138;2023-01-08T02:35:00;5.70;;;3.47;;
20084;SDS011;10202;48.474;9.138;2023-01-08T02:37:31;6.50;;;4.50;;
20084;SDS011;10202;48.474;9.138;2023-01-08T02:50:58;7.47;;;4.50;;
20084;SDS011;10202;48.474;9.138;2023-01-08T02:53:31;6.80;;;4.33;;
20084;SDS011;10202;48.474;9.138;2023-01-08T02:56:03;15.03;;;8.10;;
20084;SDS011;10202;48.474;9.138;2023-01-08T02:58:34;23.40;;;11.37;;
20084;SDS011;10202;48.474;9.138;2023-01-08T03:01:03;38.13;;;17.93;;
20084;SDS011;10202;48.474;9.138;2023-01-08T03:03:38;22.70;;;11.67;;
20084;SDS011;10202;48.474;9.138;2023-01-08T03:06:12;17.03;;;9.13;;
20084;SDS011;10202;48.474;9.138;2023-01-08T03:08:46;14.13;;;8.50;;
20084;SDS011;10202;48.474;9.138;2023-01-08T03:11:17;9.50;;;6.10;;
20084;SDS011;10202;48.474;9.138;2023-01-08T03:16:40;8.50;;;5.60;;
20084;SDS011;10202;48.474;9.138;2023-01-08T03:19:15;6.10;;;4.87;;
20084;SDS011;10202;48.474;9.138;2023-01-08T03:22:02;7.17;;;4.43;;
20084;SDS011;10202;48.474;9.138;2023-01-08T03:24:32;7.07;;;4.53;;
20084;SDS011;10202;48.474;9.138;2023-01-08T03:26:59;8.83;;;5.23;;
20084;SDS011;10202;48.474;9.138;2023-01-08T03:29:32;9.80;;;5.30;;
20084;SDS011;10202;48.474;9.138;2023-01-08T03:32:04;6.70;;;4.40;;
20084;SDS011;10202;48.474;9.138;2023-01-08T03:34:39;5.10;;;3.90;;
20084;SDS011;10202;48.474;9.138;2023-01-08T03:37:08;4.83;;;3.90;;
20084;SDS011;10202;48.474;9.138;2023-01-08T03:42:20;3.90;;;3.00;;
20084;SDS011;10202;48.474;9.138;2023-01-08T03:44:46;3.90;;;3.30;;
20084;SDS011;10202;48.474;9.138;2023-01-08T03:47:11;5.53;;;3.73;;
20084;SDS011;10202;48.474;9.138;2023-01-08T03:49:37;5.93;;;3.43;;
20084;SDS011;10202;48.474;9.138;2023-01-08T03:52:07;5.20;;;3.37;;
20084;SDS011;10202;48.474;9.138;2023-01-08T03:54:50;4.30;;;3.10;;
20084;SDS011;10202;48.474;9.138;2023-01-08T03:57:18;4.83;;;3.43;;
20084;SDS011;10202;48.474;9.138;2023-01-08T03:59:48;4.50;;;3.27;;
20084;SDS011;10202;48.474;9.138;2023-01-08T04:02:16;5.43;;;3.20;;
20084;SDS011;10202;48.474;9.138;2023-01-08T04:04:42;4.60;;;3.57;;
20084;SDS011;10202;48.474;9.138;2023-01-08T04:07:11;5.50;;;3.63;;
20084;SDS011;10202;48.474;9.138;2023-01-08T04:09:39;5.13;;;3.80;;
20084;SDS011;10202;48.474;9.138;2023-01-08T04:12:09;5.43;;;3.73;;
20084;SDS011;10202;48.474;9.138;2023-01-08T04:14:34;7.47;;;3.63;;
20084;SDS011;10202;48.474;9.138;2023-01-08T04:17:04;5.03;;;3.50;;
20084;SDS011;10202;48.474;9.138;2023-01-08T04:19:32;4.63;;;3.60;;
20084;SDS011;10202;48.474;9.138;2023-01-08T04:22:00;5.47;;;3.80;;
20084;SDS011;10202;48.474;9.138;2023-01-08T04:24:30;6.00;;;4.00;;
20084;SDS011;10202;48.474;9.138;2023-01-08T04:26:55;4.97;;;3.80;;
20084;SDS011;10202;48.474;9.138;2023-01-08T04:29:23;5.33;;;4.00;;
20084;SDS011;10202;48.474;9.138;2023-01-08T04:31:48;5.27;;;3.57;;
20084;SDS011;10202;48.474;9.138;2023-01-08T04:34:22;5.57;;;4.00;;
20084;SDS011;10202;48.474;9.138;2023-01-08T04:36:49;5.13;;;3.57;;
20084;SDS011;10202;48.474;9.138;2023-01-08T04:39:18;5.07;;;3.73;;
20084;SDS011;10202;48.474;9.138;2023-01-08T04:41:43;6.30;;;4.73;;
20084;SDS011;10202;48.474;9.138;2023-01-08T04:44:11;7.27;;;5.13;;
20084;SDS011;10202;48.474;9.138;2023-01-08T04:46:37;7.30;;;4.57;;
20084;SDS011;10202;48.474;9.138;2023-01-08T04:49:02;8.73;;;4.93;;
20084;SDS011;10202;48.474;9.138;2023-01-08T04:51:35;7.43;;;5.13;;
20084;SDS011;10202;48.474;9.138;2023-01-08T04:54:08;6.90;;;4.53;;
20084;SDS011;10202;48.474;9.138;2023-01-08T04:56:33;7.40;;;4.20;;
20084;SDS011;10202;48.474;9.138;2023-01-08T04:58:59;7.07;;;4.63;;
20084;SDS011;10202;48.474;9.138;2023-01-08T05:01:29;5.93;;;3.83;;
20084;SDS011;10202;48.474;9.138;2023-01-08T05:03:59;7.63;;;4.53;;
20084;SDS011;10202;48.474;9.138;2023-01-08T05:06:33;5.70;;;3.80;;
20084;SDS011;10202;48.474;9.138;2023-01-08T05:09:01;5.33;;;3.93;;
20084;SDS011;10202;48.474;9.138;2023-01-08T05:11:29;5.43;;;3.80;;
20084;SDS011;10202;48.474;9.138;2023-01-08T05:13:54;5.87;;;3.90;;
20084;SDS011;10202;48.474;9.138;2023-01-08T05:16:22;8.73;;;4.00;;
20084;SDS011;10202;48.474;9.138;2023-01-08T05:18:53;3.33;;;3.03;;
20084;SDS011;10202;48.474;9.138;2023-01-08T05:21:23;6.60;;;2.87;;
20084;SDS011;10202;48.474;9.138;2023-01-08T05:23:49;5.90;;;3.20;;
20084;SDS011;10202;48.474;9.138;2023-01-08T05:26:15;3.80;;;2.70;;
20084;SDS011;10202;48.474;9.138;2023-01-08T05:28:43;5.77;;;3.47;;
20084;SDS011;10202;48.474;9.138;2023-01-08T05:31:09;4.30;;;2.97;;
20084;SDS011;10202;48.474;9.138;2023-01-08T05:33:36;4.60;;;3.23;;
20084;SDS011;10202;48.474;9.138;2023-01-08T05:36:05;4.78;;;3.40;;
20084;SDS011;10202;48.474;9.138;2023-01-08T05:38:32;5.00;;;3.37;;
20084;SDS011;10202;48.474;9.138;2023-01-08T05:40:57;5.97;;;3.65;;
20084;SDS011;10202;48.474;9.138;2023-01-08T05:43:23;4.25;;;2.92;;
20084;SDS011;10202;48.474;9.138;2023-01-08T05:45:49;6.03;;;3.63;;
20084;SDS011;10202;48.474;9.138;2023-01-08T05:48:17;4.95;;;3.92;;
20084;SDS011;10202;48.474;9.138;2023-01-08T05:50:43;5.47;;;4.40;;
20084;SDS011;10202;48.474;9.138;2023-01-08T05:53:08;5.23;;;3.90;;
20084;SDS011;10202;48.474;9.138;2023-01-08T05:55:34;7.28;;;4.00;;
20084;SDS011;10202;48.474;9.138;2023-01-08T05:58:04;6.40;;;3.95;;
20084;SDS011;10202;48.474;9.138;2023-01-08T06:00:32;5.35;;;3.83;;
20084;SDS011;10202;48.474;9.138;2023-01-08T06:02:59;5.32;;;4.10;;
20084;SDS011;10202;48.474;9.138;2023-01-08T06:05:30;7.25;;;4.32;;
20084;SDS011;10202;48.474;9.138;2023-01-08T06:07:57;6.03;;;4.03;;
20084;SDS011;10202;48.474;9.138;2023-01-08T06:10:28;8.60;;;3.92;;
20084;SDS011;10202;48.474;9.138;2023-01-08T06:12:55;5.78;;;3.60;;
20084;SDS011;10202;48.474;9.138;2023-01-08T06:15:21;6.15;;;3.40;;
20084;SDS011;10202;48.474;9.138;2023-01-08T06:17:51;3.60;;;2.78;;
20084;SDS011;10202;48.474;9.138;2023-01-08T06:20:19;5.30;;;3.08;;
20084;SDS011;10202;48.474;9.138;2023-01-08T06:22:44;3.45;;;2.58;;
20084;SDS011;10202;48.474;9.138;2023-01-08T06:25:15;3.75;;;2.50;;
20084;SDS011;10202;48.474;9.138;2023-01-08T06:27:45;4.60;;;2.38;;
20084;SDS011;10202;48.474;9.138;2023-01-08T06:30:16;3.28;;;2.50;;
20084;SDS011;10202;48.474;9.138;2023-01-08T06:32:49;4.25;;;2.70;;
20084;SDS011;10202;48.474;9.138;2023-01-08T06:35:14;4.10;;;2.55;;
20084;SDS011;10202;48.474;9.138;2023-01-08T06:37:40;4.90;;;2.33;;
20084;SDS011;10202;48.474;9.138;2023-01-08T06:40:08;4.50;;;2.08;;
20084;SDS011;10202;48.474;9.138;2023-01-08T06:42:36;3.05;;;2.03;;
20084;SDS011;10202;48.474;9.138;2023-01-08T06:45:02;2.47;;;1.83;;
20084;SDS011;10202;48.474;9.138;2023-01-08T06:47:34;1.83;;;1.58;;
20084;SDS011;10202;48.474;9.138;2023-01-08T06:50:02;3.25;;;1.75;;
20084;SDS011;10202;48.474;9.138;2023-01-08T06:52:33;2.92;;;1.73;;
20084;SDS011;10202;48.474;9.138;2023-01-08T06:54:58;2.28;;;1.77;;
20084;SDS011;10202;48.474;9.138;2023-01-08T06:57:26;2.80;;;2.00;;
20084;SDS011;10202;48.474;9.138;2023-01-08T06:59:52;2.38;;;1.75;;
20084;SDS011;10202;48.474;9.138;2023-01-08T07:02:20;2.60;;;1.77;;
20084;SDS011;10202;48.474;9.138;2023-01-08T07:04:45;2.25;;;1.95;;
20084;SDS011;10202;48.474;9.138;2023-01-08T07:07:13;2.50;;;1.90;;
20084;SDS011;10202;48.474;9.138;2023-01-08T07:09:41;2.50;;;1.73;;
20084;SDS011;10202;48.474;9.138;2023-01-08T07:12:13;2.30;;;1.40;;
20084;SDS011;10202;48.474;9.138;2023-01-08T07:14:44;5.30;;;1.58;;
20084;SDS011;10202;48.474;9.138;2023-01-08T07:17:16;1.70;;;1.45;;
20084;SDS011;10202;48.474;9.138;2023-01-08T07:19:42;1.63;;;1.42;;
20084;SDS011;10202;48.474;9.138;2023-01-08T07:22:09;2.30;;;1.88;;
20084;SDS011;10202;48.474;9.138;2023-01-08T07:24:35;7.03;;;4.05;;
20084;SDS011;10202;48.474;9.138;2023-01-08T07:27:00;7.07;;;3.22;;
20084;SDS011;10202;48.474;9.138;2023-01-08T07:29:28;6.00;;;3.08;;
20084;SDS011;10202;48.474;9.138;2023-01-08T07:31:54;2.53;;;2.08;;
20084;SDS011;10202;48.474;9.138;2023-01-08T07:34:19;2.38;;;1.50;;
20084;SDS011;10202;48.474;9.138;2023-01-08T07:36:47;3.58;;;2.58;;
20084;SDS011;10202;48.474;9.138;2023-01-08T07:39:13;1.55;;;1.45;;
20084;SDS011;10202;48.474;9.138;2023-01-08T07:41:38;5.13;;;2.10;;
20084;SDS011;10202;48.474;9.138;2023-01-08T07:44:04;2.60;;;1.60;;
20084;SDS011;10202;48.474;9.138;2023-01-08T07:46:32;2.88;;;2.10;;
20084;SDS011;10202;48.474;9.138;2023-01-08T07:49:00;3.40;;;2.38;;
20084;SDS011;10202;48.474;9.138;2023-01-08T07:51:25;3.60;;;2.40;;
20084;SDS011;10202;48.474;9.138;2023-01-08T07:53:54;3.80;;;2.78;;
20084;SDS011;10202;48.474;9.138;2023-01-08T07:56:22;4.68;;;2.45;;
20084;SDS011;10202;48.474;9.138;2023-01-08T07:58:52;6.05;;;3.55;;
20084;SDS011;10202;48.474;9.138;2023-01-08T08:01:22;4.30;;;3.05;;
20084;SDS011;10202;48.474;9.138;2023-01-08T08:03:50;7.05;;;5.05;;
20084;SDS011;10202;48.474;9.138;2023-01-08T08:06:18;12.30;;;5.78;;
20084;SDS011;10202;48.474;9.138;2023-01-08T08:08:46;27.23;;;12.55;;
20084;SDS011;10202;48.474;9.138;2023-01-08T08:11:12;34.92;;;15.85;;
20084;SDS011;10202;48.474;9.138;2023-01-08T08:13:40;16.10;;;7.22;;
20084;SDS011;10202;48.474;9.138;2023-01-08T08:16:09;23.30;;;12.85;;
20084;SDS011;10202;48.474;9.138;2023-01-08T08:18:40;32.08;;;15.75;;
20084;SDS011;10202;48.474;9.138;2023-01-08T08:21:07;4.95;;;3.53;;
20084;SDS011;10202;48.474;9.138;2023-01-08T08:23:40;5.22;;;3.30;;
20084;SDS011;10202;48.474;9.138;2023-01-08T08:26:10;2.42;;;2.20;;
20084;SDS011;10202;48.474;9.138;2023-01-08T08:28:41;1.42;;;1.20;;
20084;SDS011;10202;48.474;9.138;2023-01-08T08:31:11;1.30;;;1.20;;
20084;SDS011;10202;48.474;9.138;2023-01-08T08:33:39;1.73;;;1.10;;
20084;SDS011;10202;48.474;9.138;2023-01-08T08:36:05;1.52;;;1.02;;
20084;SDS011;10202;48.474;9.138;2023-01-08T08:38:33;2.38;;;1.30;;
20084;SDS011;10202;48.474;9.138;2023-01-08T08:41:02;1.25;;;1.13;;
20084;SDS011;10202;48.474;9.138;2023-01-08T08:43:33;1.02;;;1.00;;
20084;SDS011;10202;48.474;9.138;2023-01-08T08:46:01;1.27;;;1.17;;
20084;SDS011;10202;48.474;9.138;2023-01-08T08:48:29;0.70;;;0.70;;
20084;SDS011;10202;48.474;9.138;2023-01-08T08:50:57;1.30;;;1.10;;
20084;SDS011;10202;48.474;9.138;2023-01-08T08:53:25;1.15;;;0.80;;
20084;SDS011;10202;48.474;9.138;2023-01-08T08:55:51;2.22;;;0.93;;
20084;SDS011;10202;48.474;9.138;2023-01-08T08:58:16;1.25;;;1.00;;
20084;SDS011;10202;48.474;9.138;2023-01-08T09:00:42;1.42;;;1.30;;
20084;SDS011;10202;48.474;9.138;2023-01-08T09:03:14;1.35;;;0.93;;
20084;SDS011;10202;48.474;9.138;2023-01-08T09:05:42;0.80;;;0.80;;
20084;SDS011;10202;48.474;9.138;2023-01-08T09:08:12;1.13;;;0.85;;
20084;SDS011;10202;48.474;9.138;2023-01-08T09:10:45;1.58;;;0.75;;
20084;SDS011;10202;48.474;9.138;2023-01-08T09:13:10;1.27;;;1.17;;
20084;SDS011;10202;48.474;9.138;2023-01-08T09:15:38;0.80;;;0.80;;
20084;SDS011;10202;48.474;9.138;2023-01-08T09:18:06;4.57;;;2.38;;
20084;SDS011;10202;48.474;9.138;2023-01-08T09:20:36;81.13;;;28.90;;
20084;SDS011;10202;48.474;9.138;2023-01-08T09:23:09;1.63;;;1.42;;
20084;SDS011;10202;48.474;9.138;2023-01-08T09:25:40;2.83;;;1.10;;
20084;SDS011;10202;48.474;9.138;2023-01-08T09:28:06;1.10;;;1.00;;
20084;SDS011;10202;48.474;9.138;2023-01-08T09:30:36;0.98;;;0.70;;
20084;SDS011;10202;48.474;9.138;2023-01-08T09:33:03;1.10;;;1.00;;
20084;SDS011;10202;48.474;9.138;2023-01-08T09:35:32;1.38;;;0.93;;
20084;SDS011;10202;48.474;9.138;2023-01-08T09:38:00;0.82;;;0.80;;
20084;SDS011;10202;48.474;9.138;2023-01-08T09:40:37;0.88;;;0.70;;
20084;SDS011;10202;48.474;9.138;2023-01-08T09:43:14;2.55;;;1.58;;
20084;SDS011;10202;48.474;9.138;2023-01-08T09:45:47;0.80;;;0.80;;
20084;SDS011;10202;48.474;9.138;2023-01-08T09:48:17;2.90;;;1.58;;
20084;SDS011;10202;48.474;9.138;2023-01-08T09:50:47;0.88;;;0.80;;
20084;SDS011;10202;48.474;9.138;2023-01-08T09:53:15;1.33;;;1.23;;
20084;SDS011;10202;48.474;9.138;2023-01-08T09:55:47;0.77;;;0.77;;
20084;SDS011;10202;48.474;9.138;2023-01-08T09:58:48;6.28;;;1.50;;
20084;SDS011;10202;48.474;9.138;2023-01-08T10:01:24;9.38;;;2.95;;
20084;SDS011;10202;48.474;9.138;2023-01-08T10:06:32;3.05;;;2.40;;
20084;SDS011;10202;48.474;9.138;2023-01-08T10:08:58;3.33;;;2.40;;
20084;SDS011;10202;48.474;9.138;2023-01-08T10:11:27;2.50;;;2.20;;
20084;SDS011;10202;48.474;9.138;2023-01-08T10:14:05;15.93;;;7.97;;
20084;SDS011;10202;48.474;9.138;2023-01-08T10:17:35;10.32;;;6.90;;
20084;SDS011;10202;48.474;9.138;2023-01-08T10:19:53;1.75;;;1.65;;
20084;SDS011;10202;48.474;9.138;2023-01-08T10:22:20;1.58;;;1.23;;
20084;SDS011;10202;48.474;9.138;2023-01-08T10:24:50;1.20;;;1.10;;
20084;SDS011;10202;48.474;9.138;2023-01-08T10:27:35;0.70;;;0.70;;
20084;SDS011;10202;48.474;9.138;2023-01-08T10:30:22;1.48;;;1.27;;
20084;SDS011;10202;48.474;9.138;2023-01-08T10:32:56;1.45;;;1.30;;
20084;SDS011;10202;48.474;9.138;2023-01-08T10:35:30;1.50;;;1.20;;
20084;SDS011;10202;48.474;9.138;2023-01-08T10:38:20;4.45;;;2.55;;
20084;SDS011;10202;48.474;9.138;2023-01-08T10:40:52;3.67;;;2.10;;
20084;SDS011;10202;48.474;9.138;2023-01-08T10:43:23;2.05;;;1.60;;
20084;SDS011;10202;48.474;9.138;2023-01-08T10:48:45;4.78;;;3.03;;
20084;SDS011;10202;48.474;9.138;2023-01-08T10:51:19;2.00;;;1.60;;
20084;SDS011;10202;48.474;9.138;2023-01-08T10:53:47;4.57;;;2.83;;
20084;SDS011;10202;48.474;9.138;2023-01-08T10:56:20;31.58;;;11.15;;
20084;SDS011;10202;48.474;9.138;2023-01-08T10:58:48;5.60;;;3.15;;
20084;SDS011;10202;48.474;9.138;2023-01-08T11:03:50;5.20;;;3.95;;
20084;SDS011;10202;48.474;9.138;2023-01-08T11:06:35;1.75;;;1.65;;
20084;SDS011;10202;48.474;9.138;2023-01-08T11:09:28;1.35;;;0.98;;
20084;SDS011;10202;48.474;9.138;2023-01-08T11:11:59;6.38;;;3.95;;
20084;SDS011;10202;48.474;9.138;2023-01-08T11:14:27;3.50;;;2.67;;
20084;SDS011;10202;48.474;9.138;2023-01-08T11:17:00;1.70;;;1.50;;
20084;SDS011;10202;48.474;9.138;2023-01-08T11:19:37;3.40;;;2.80;;
20084;SDS011;10202;48.474;9.138;2023-01-08T11:22:20;5.10;;;3.40;;
20084;SDS011;10202;48.474;9.138;2023-01-08T11:24:52;8.13;;;5.47;;
20084;SDS011;10202;48.474;9.138;2023-01-08T11:27:31;8.43;;;5.10;;
20084;SDS011;10202;48.474;9.138;2023-01-08T11:30:06;11.70;;;6.88;;
20084;SDS011;10202;48.474;9.138;2023-01-08T11:38:01;40.08;;;21.40;;
20084;SDS011;10202;48.474;9.138;2023-01-08T11:46:28;16.92;;;10.00;;
20084;SDS011;10202;48.474;9.138;2023-01-08T11:49:11;16.33;;;9.20;;
20084;SDS011;10202;48.474;9.138;2023-01-08T11:57:58;19.10;;;10.63;;
20084;SDS011;10202;48.474;9.138;2023-01-08T12:09:37;2.70;;;1.80;;
20084;SDS011;10202;48.474;9.138;2023-01-08T12:30:16;2.50;;;1.45;;
20084;SDS011;10202;48.474;9.138;2023-01-08T12:36:09;3.05;;;2.30;;
20084;SDS011;10202;48.474;9.138;2023-01-08T12:38:41;2.63;;;2.25;;
20084;SDS011;10202;48.474;9.138;2023-01-08T12:41:12;2.47;;;1.92;;
20084;SDS011;10202;48.474;9.138;2023-01-08T12:46:37;3.97;;;2.08;;
20084;SDS011;10202;48.474;9.138;2023-01-08T12:49:10;4.70;;;2.92;;
20084;SDS011;10202;48.474;9.138;2023-01-08T12:52:00;3.00;;;2.70;;
20084;SDS011;10202;48.474;9.138;2023-01-08T13:01:21;7.05;;;5.10;;
20084;SDS011;10202;48.474;9.138;2023-01-08T13:04:12;2.38;;;1.90;;
20084;SDS011;10202;48.474;9.138;2023-01-08T13:06:47;1.70;;;1.60;;
20084;SDS011;10202;48.474;9.138;2023-01-08T13:09:21;1.90;;;1.70;;
20084;SDS011;10202;48.474;9.138;2023-01-08T13:11:50;3.17;;;1.73;;
20084;SDS011;10202;48.474;9.138;2023-01-08T13:14:17;2.55;;;2.20;;
20084;SDS011;10202;48.474;9.138;2023-01-08T13:16:46;2.83;;;2.53;;
20084;SDS011;10202;48.474;9.138;2023-01-08T13:19:36;2.33;;;1.98;;
20084;SDS011;10202;48.474;9.138;2023-01-08T13:22:14;2.83;;;2.50;;
20084;SDS011;10202;48.474;9.138;2023-01-08T13:24:51;2.60;;;2.22;;
20084;SDS011;10202;48.474;9.138;2023-01-08T13:27:45;4.75;;;3.75;;
20084;SDS011;10202;48.474;9.138;2023-01-08T13:38:38;10.52;;;6.88;;
20084;SDS011;10202;48.474;9.138;2023-01-08T13:44:32;11.73;;;7.88;;
20084;SDS011;10202;48.474;9.138;2023-01-08T13:47:15;5.00;;;3.70;;
20084;SDS011;10202;48.474;9.138;2023-01-08T13:49:45;2.45;;;2.10;;
20084;SDS011;10202;48.474;9.138;2023-01-08T13:52:40;6.88;;;3.95;;
20084;SDS011;10202;48.474;9.138;2023-01-08T13:55:31;7.35;;;3.92;;
20084;SDS011;10202;48.474;9.138;2023-01-08T13:58:02;8.23;;;4.63;;
20084;SDS011;10202;48.474;9.138;2023-01-08T14:05:52;1.92;;;1.55;;
20084;SDS011;10202;48.474;9.138;2023-01-08T14:09:17;6.65;;;4.13;;
20084;SDS011;10202;48.474;9.138;2023-01-08T14:11:44;4.88;;;3.03;;
20084;SDS011;10202;48.474;9.138;2023-01-08T14:14:14;2.22;;;1.90;;
20084;SDS011;10202;48.474;9.138;2023-01-08T14:16:46;4.80;;;2.97;;
20084;SDS011;10202;48.474;9.138;2023-01-08T14:19:21;7.35;;;4.45;;
20084;SDS011;10202;48.474;9.138;2023-01-08T14:21:54;6.85;;;3.40;;
20084;SDS011;10202;48.474;9.138;2023-01-08T14:24:22;10.02;;;5.10;;
20084;SDS011;10202;48.474;9.138;2023-01-08T14:26:52;5.20;;;3.33;;
20084;SDS011;10202;48.474;9.138;2023-01-08T14:29:24;8.00;;;3.83;;
20084;SDS011;10202;48.474;9.138;2023-01-08T14:31:59;6.03;;;4.40;;
20084;SDS011;10202;48.474;9.138;2023-01-08T14:34:28;4.35;;;3.30;;
20084;SDS011;10202;48.474;9.138;2023-01-08T14:36:57;4.07;;;2.80;;
20084;SDS011;10202;48.474;9.138;2023-01-08T14:39:33;3.17;;;2.28;;
20084;SDS011;10202;48.474;9.138;2023-01-08T14:42:30;6.70;;;4.97;;
20084;SDS011;10202;48.474;9.138;2023-01-08T14:45:15;3.65;;;2.40;;
20084;SDS011;10202;48.474;9.138;2023-01-08T14:47:53;4.07;;;3.50;;
20084;SDS011;10202;48.474;9.138;2023-01-08T14:53:23;3.50;;;2.85;;
20084;SDS011;10202;48.474;9.138;2023-01-08T14:55:47;2.83;;;2.35;;
20084;SDS011;10202;48.474;9.138;2023-01-08T14:58:22;3.85;;;3.30;;
20084;SDS011;10202;48.474;9.138;2023-01-08T15:00:55;5.90;;;2.70;;
20084;SDS011;10202;48.474;9.138;2023-01-08T15:06:07;4.43;;;3.42;;
20084;SDS011;10202;48.474;9.138;2023-01-08T15:08:41;7.38;;;4.10;;
20084;SDS011;10202;48.474;9.138;2023-01-08T15:13:54;4.93;;;3.90;;
20084;SDS011;10202;48.474;9.138;2023-01-08T15:16:32;4.00;;;3.40;;
20084;SDS011;10202;48.474;9.138;2023-01-08T15:19:09;6.30;;;4.35;;
20084;SDS011;10202;48.474;9.138;2023-01-08T15:21:46;14.05;;;9.20;;
20084;SDS011;10202;48.474;9.138;2023-01-08T15:24:20;8.93;;;5.53;;
20084;SDS011;10202;48.474;9.138;2023-01-08T15:26:58;7.15;;;5.30;;
20084;SDS011;10202;48.474;9.138;2023-01-08T15:29:33;7.32;;;3.85;;
20084;SDS011;10202;48.474;9.138;2023-01-08T15:32:10;5.32;;;3.92;;
20084;SDS011;10202;48.474;9.138;2023-01-08T15:34:41;5.65;;;3.92;;
20084;SDS011;10202;48.474;9.138;2023-01-08T15:37:07;5.15;;;3.47;;
20084;SDS011;10202;48.474;9.138;2023-01-08T15:39:33;4.47;;;3.80;;
20084;SDS011;10202;48.474;9.138;2023-01-08T15:42:23;5.55;;;4.10;;
20084;SDS011;10202;48.474;9.138;2023-01-08T15:45:11;5.55;;;3.65;;
20084;SDS011;10202;48.474;9.138;2023-01-08T15:47:52;6.60;;;4.57;;
20084;SDS011;10202;48.474;9.138;2023-01-08T15:50:21;4.90;;;3.17;;
20084;SDS011;10202;48.474;9.138;2023-01-08T15:52:51;3.80;;;3.05;;
20084;SDS011;10202;48.474;9.138;2023-01-08T15:55:27;3.88;;;2.83;;
20084;SDS011;10202;48.474;9.138;2023-01-08T15:57:58;11.43;;;6.55;;
20084;SDS011;10202;48.474;9.138;2023-01-08T16:00:24;12.60;;;7.43;;
20084;SDS011;10202;48.474;9.138;2023-01-08T16:02:51;8.02;;;5.60;;
20084;SDS011;10202;48.474;9.138;2023-01-08T16:05:19;22.58;;;12.00;;
20084;SDS011;10202;48.474;9.138;2023-01-08T16:07:50;5.45;;;3.35;;
20084;SDS011;10202;48.474;9.138;2023-01-08T16:10:16;9.40;;;6.40;;
20084;SDS011;10202;48.474;9.138;2023-01-08T16:12:45;11.13;;;6.97;;
20084;SDS011;10202;48.474;9.138;2023-01-08T16:15:11;13.20;;;6.30;;
20084;SDS011;10202;48.474;9.138;2023-01-08T16:17:41;5.13;;;3.63;;
20084;SDS011;10202;48.474;9.138;2023-01-08T16:20:10;9.70;;;7.13;;
20084;SDS011;10202;48.474;9.138;2023-01-08T16:22:37;2.83;;;2.40;;
20084;SDS011;10202;48.474;9.138;2023-01-08T16:25:06;5.25;;;2.22;;
20084;SDS011;10202;48.474;9.138;2023-01-08T16:27:33;2.50;;;2.20;;
20084;SDS011;10202;48.474;9.138;2023-01-08T16:30:05;1.95;;;1.60;;
20084;SDS011;10202;48.474;9.138;2023-01-08T16:32:36;2.40;;;2.20;;
20084;SDS011;10202;48.474;9.138;2023-01-08T16:35:01;2.22;;;1.98;;
20084;SDS011;10202;48.474;9.138;2023-01-08T16:37:30;1.98;;;1.80;;
20084;SDS011;10202;48.474;9.138;2023-01-08T16:39:57;2.15;;;1.95;;
20084;SDS011;10202;48.474;9.138;2023-01-08T16:42:23;3.33;;;2.13;;
20084;SDS011;10202;48.474;9.138;2023-01-08T16:44:57;2.67;;;2.00;;
20084;SDS011;10202;48.474;9.138;2023-01-08T16:47:22;2.97;;;2.47;;
20084;SDS011;10202;48.474;9.138;2023-01-08T16:49:48;8.85;;;4.90;;
20084;SDS011;10202;48.474;9.138;2023-01-08T16:52:16;4.13;;;2.58;;
20084;SDS011;10202;48.474;9.138;2023-01-08T16:54:49;6.30;;;3.90;;
20084;SDS011;10202;48.474;9.138;2023-01-08T16:57:17;3.35;;;2.60;;
20084;SDS011;10202;48.474;9.138;2023-01-08T16:59:43;3.97;;;2.30;;
20084;SDS011;10202;48.474;9.138;2023-01-08T17:02:11;6.93;;;3.95;;
20084;SDS011;10202;48.474;9.138;2023-01-08T17:04:39;17.70;;;8.43;;
20084;SDS011;10202;48.474;9.138;2023-01-08T17:07:04;15.98;;;8.02;;
20084;SDS011;10202;48.474;9.138;2023-01-08T17:09:34;14.90;;;7.90;;